createdAt,value
2023-05-10T00:00:36.604Z,13.9
2023-05-10T00:10:36.596Z,14.0
2023-05-10T00:15:36.618Z,14.1
2023-05-10T00:45:36.619Z,14.0
2023-05-10T00:50:36.594Z,14.1
2023-05-10T00:55:36.592Z,14.0
2023-05-10T01:00:36.622Z,13.9
2023-05-10T01:10:36.593Z,14.0
2023-05-10T01:30:36.601Z,14.1
2023-05-10T01:50:36.600Z,14.2
2023-05-10T02:00:36.658Z,14.1
2023-05-10T02:05:36.600Z,14.2
2023-05-10T02:15:36.627Z,14.1
2023-05-10T02:35:36.633Z,14.0
2023-05-10T02:40:36.634Z,14.1
2023-05-10T02:45:36.646Z,14.0
2023-05-10T02:55:36.652Z,13.9
2023-05-10T03:05:36.634Z,13.8
2023-05-10T03:20:36.644Z,13.6
2023-05-10T03:35:36.653Z,13.5
2023-05-10T04:00:36.661Z,13.4
2023-05-10T04:20:36.685Z,13.5
2023-05-10T04:25:36.666Z,13.6
2023-05-10T04:30:36.698Z,13.5
2023-05-10T04:35:36.653Z,13.6
2023-05-10T04:55:36.683Z,13.5
2023-05-10T05:00:36.673Z,13.6
2023-05-10T05:05:36.690Z,13.5
2023-05-10T05:10:36.713Z,13.6
2023-05-10T05:15:36.670Z,13.8
2023-05-10T05:20:36.681Z,13.7
2023-05-10T05:25:36.672Z,13.8
2023-05-10T05:35:36.681Z,13.7
2023-05-10T05:40:36.685Z,13.9
2023-05-10T05:50:36.688Z,14.0
2023-05-10T05:55:36.710Z,14.1
2023-05-10T06:00:36.692Z,14.4
2023-05-10T06:05:36.713Z,14.6
2023-05-10T06:15:36.713Z,14.7
2023-05-10T06:20:36.715Z,14.8
2023-05-10T06:25:36.716Z,14.7
2023-05-10T06:30:36.701Z,14.8
2023-05-10T06:35:36.720Z,14.7
2023-05-10T06:40:36.697Z,14.5
2023-05-10T06:45:36.729Z,14.6
2023-05-10T06:55:36.722Z,14.5
2023-05-10T07:00:36.736Z,14.2
2023-05-10T07:15:36.744Z,14.3
2023-05-10T07:20:36.705Z,14.2
2023-05-10T07:25:36.750Z,14.4
2023-05-10T07:30:36.773Z,14.7
2023-05-10T07:35:36.743Z,14.8
2023-05-10T07:40:36.717Z,14.6
2023-05-10T07:45:36.754Z,14.8
2023-05-10T07:50:36.736Z,14.9
2023-05-10T07:55:36.796Z,14.8
2023-05-10T08:05:36.750Z,15.3
2023-05-10T08:10:36.758Z,15.9
2023-05-10T08:15:36.769Z,16.2
2023-05-10T08:20:36.749Z,16.5
2023-05-10T08:25:36.744Z,16.2
2023-05-10T08:30:36.743Z,17.0
2023-05-10T08:35:36.740Z,17.4
2023-05-10T08:40:36.751Z,17.5
2023-05-10T08:45:36.900Z,16.4
2023-05-10T08:50:36.769Z,15.9
2023-05-10T08:55:36.742Z,16.3
2023-05-10T09:00:36.821Z,16.6
2023-05-10T09:05:36.760Z,16.5
2023-05-10T09:10:36.762Z,17.1
2023-05-10T09:15:36.801Z,17.0
2023-05-10T09:20:36.767Z,17.3
2023-05-10T09:25:36.763Z,17.6
2023-05-10T09:30:36.824Z,18.5
2023-05-10T09:35:36.767Z,18.1
2023-05-10T09:40:36.792Z,17.3
2023-05-10T09:45:38.536Z,17.5
2023-05-10T09:50:36.792Z,18.0
2023-05-10T09:55:36.768Z,18.7
2023-05-10T10:00:36.791Z,20.1
2023-05-10T10:05:36.800Z,19.5
2023-05-10T10:10:36.784Z,18.0
2023-05-10T10:15:36.876Z,17.3
2023-05-10T10:20:36.792Z,18.0
2023-05-10T10:25:36.794Z,18.5
2023-05-10T10:30:36.820Z,18.6
2023-05-10T10:35:36.790Z,19.7
2023-05-10T10:40:36.795Z,19.4
2023-05-10T10:45:36.790Z,19.2
2023-05-10T10:50:36.800Z,19.8
2023-05-10T10:55:36.784Z,18.9
2023-05-10T11:00:36.833Z,18.6
2023-05-10T11:05:36.796Z,19.1
2023-05-10T11:10:36.820Z,18.4
2023-05-10T11:15:36.812Z,19.7
2023-05-10T11:20:36.799Z,23.0
2023-05-10T11:25:36.818Z,21.7
2023-05-10T11:30:36.847Z,21.1
2023-05-10T11:35:36.826Z,21.4
2023-05-10T11:40:36.821Z,23.0
2023-05-10T11:45:36.820Z,23.2
2023-05-10T11:50:36.860Z,22.1
2023-05-10T11:55:36.815Z,24.1
2023-05-10T12:00:36.902Z,22.5
2023-05-10T12:05:36.801Z,22.0
2023-05-10T12:10:36.845Z,23.1
2023-05-10T12:15:36.831Z,25.7
2023-05-10T12:20:36.824Z,25.1
2023-05-10T12:30:36.833Z,25.3
2023-05-10T12:35:36.836Z,27.0
2023-05-10T12:40:36.941Z,26.8
2023-05-10T12:45:36.860Z,30.1
2023-05-10T12:50:36.831Z,27.7
2023-05-10T12:55:36.850Z,27.3
2023-05-10T13:00:36.840Z,25.7
2023-05-10T13:05:36.841Z,23.5
2023-05-10T13:10:36.842Z,22.2
2023-05-10T13:15:36.841Z,22.7
2023-05-10T13:20:36.847Z,23.4
2023-05-10T13:25:36.843Z,23.5
2023-05-10T13:30:36.861Z,22.6
2023-05-10T13:35:36.857Z,22.0
2023-05-10T13:40:36.870Z,20.8
2023-05-10T13:45:36.843Z,19.9
2023-05-10T13:50:36.871Z,19.6
2023-05-10T13:55:36.858Z,19.5
2023-05-10T14:00:36.871Z,18.9
2023-05-10T14:05:36.869Z,18.6
2023-05-10T14:10:36.886Z,19.0
2023-05-10T14:15:36.870Z,19.1
2023-05-10T14:20:36.885Z,19.0
2023-05-10T14:25:36.886Z,19.5
2023-05-10T14:30:36.887Z,19.1
2023-05-10T14:40:36.892Z,18.7
2023-05-10T14:45:36.899Z,19.3
2023-05-10T14:50:37.671Z,19.6
2023-05-10T14:55:36.880Z,19.4
2023-05-10T15:00:36.881Z,20.1
2023-05-10T15:05:36.890Z,19.0
2023-05-10T15:15:36.909Z,19.9
2023-05-10T15:20:36.887Z,19.7
2023-05-10T15:30:36.898Z,19.1
2023-05-10T15:35:36.923Z,19.6
2023-05-10T15:40:36.894Z,19.1
2023-05-10T15:45:37.834Z,19.3
2023-05-10T15:50:36.909Z,19.1
2023-05-10T15:55:36.896Z,19.3
2023-05-10T16:00:37.066Z,19.1
2023-05-10T16:10:36.938Z,18.7
2023-05-10T16:15:36.934Z,19.0
2023-05-10T16:20:36.926Z,18.9
2023-05-10T16:25:36.934Z,19.0
2023-05-10T16:35:36.911Z,18.7
2023-05-10T16:40:36.961Z,18.9
2023-05-10T16:45:36.926Z,18.8
2023-05-10T16:50:36.943Z,18.6
2023-05-10T16:55:36.919Z,18.7
2023-05-10T17:00:36.957Z,18.4
2023-05-10T17:05:36.953Z,18.2
2023-05-10T17:10:36.941Z,18.0
2023-05-10T17:25:36.941Z,18.1
2023-05-10T17:30:36.961Z,18.2
2023-05-10T17:35:36.945Z,17.9
2023-05-10T17:40:36.967Z,17.8
2023-05-10T17:45:37.020Z,17.6
2023-05-10T17:55:36.961Z,17.4
2023-05-10T18:00:36.968Z,17.5
2023-05-10T18:10:38.164Z,17.2
2023-05-10T18:15:36.980Z,17.1
2023-05-10T18:20:36.971Z,17.2
2023-05-10T18:25:36.973Z,17.1
2023-05-10T18:30:36.983Z,17.0
2023-05-10T18:35:36.966Z,16.9
2023-05-10T18:40:36.961Z,16.8
2023-05-10T18:45:36.994Z,16.9
2023-05-10T18:50:36.974Z,16.8
2023-05-10T18:55:37.011Z,16.7
2023-05-10T19:00:37.001Z,16.5
2023-05-10T19:05:36.977Z,16.3
2023-05-10T19:10:36.990Z,16.2
2023-05-10T19:25:37.052Z,16.1
2023-05-10T19:30:36.985Z,16.0
2023-05-10T19:35:37.318Z,15.8
2023-05-10T19:45:37.003Z,15.7
2023-05-10T19:50:37.024Z,15.6
2023-05-10T20:20:37.017Z,15.5
2023-05-10T20:35:37.036Z,15.4
2023-05-10T20:50:37.038Z,15.3
2023-05-10T21:00:37.037Z,15.2
2023-05-10T21:05:37.017Z,15.0
2023-05-10T21:10:37.057Z,14.8
2023-05-10T21:15:37.063Z,14.7
2023-05-10T21:20:37.041Z,14.8
2023-05-10T21:25:37.054Z,15.0
2023-05-10T21:35:37.083Z,14.9
2023-05-10T21:40:37.081Z,14.6
2023-05-10T21:45:37.068Z,14.5
2023-05-10T21:50:37.066Z,14.4
2023-05-10T21:55:37.081Z,14.3
2023-05-10T22:10:37.086Z,14.4
2023-05-10T22:20:37.048Z,14.6
2023-05-10T22:30:37.074Z,14.8
2023-05-10T22:35:37.063Z,14.7
2023-05-10T22:45:37.057Z,14.8
2023-05-10T22:50:37.091Z,14.7
2023-05-10T23:05:37.076Z,14.6
2023-05-10T23:20:37.073Z,14.5
2023-05-10T23:30:37.080Z,14.4
2023-05-10T23:40:37.102Z,14.3
2023-05-10T23:45:37.129Z,14.4
2023-05-10T23:55:37.086Z,14.3
